Forside
METAR-TAF:

METAR-TAF

Lufthavne :

Mankato, Minnesota, USA

Breddekreds: 44-13N, længdekreds: 093-55W, højde: 311 m

Aktuelle vejr

Denne rapport blev lavet for 11 timer og 51 minutter siden, kl. 15:56 UTC
Vind 12 kt fra nordvest
Temperatur -17°C
Fugtighed 77%
Tryk 1024 hPa
Sigt: 16.1 km
skyfri

METAR: KMKT 101556Z AUTO 31012KT 10SM CLR M17/M20 A3023 RMK AO2 SNE10 SLP268 P0000 T11671200 FZRANO

Tid: 21:47 (03:47 UTC)

Vejrudsigter

Denne rapport blev lavet for 4 timer og 11 minutter siden, kl. 23:36 UTC
Foreløbig gælder fra 11 på 00 UTC til 11 på 24 UTC
Vind 8 kt fra vestsydvest
Sigt: 10 km
skyfri
Fra 11 på 0800 UTC
Vind 5 kt fra vest
Sigt: 10 km
Spredte skyer i en højde af 8000 ft
Fra 11 på 1200 UTC
Vind 4 kt fra varierende retninger
Sigt: 10 km
skyfri
Fra 11 på 2000 UTC
Vind 5 kt fra sydøst
Sigt: 10 km
Brudte skyer i en højde af 10000 ft

TAF: KMKT 102336Z 1100/1124 24008KT P6SM SKC FM110800 27005KT P6SM SCT080 FM111200 VRB04KT P6SM SKC FM112000 14005KT P6SM BKN100 AMD NOT SKED

Vejrobservationer og prognoser fra mere end 4000 lufthavne (METAR og TAF).

De gule og røde prikker repræsenterer de meteorologiske stationer.

Flyt musen over at se navnet på stationen.

Så klik over at se vejr observationer og prognoser.

At skifte det kort: Klik på de grønne knapper med et sort kors for at zoome ind; på den grønne knap med en bindestreg for at zoome ud; eller på de grønne pile for tilstødende kort.


METAR-TAF: